createdAt,value
2019-04-20T00:00:58.552Z,5.13
2019-04-20T00:03:39.442Z,5.00
2019-04-20T00:06:09.134Z,5.40
2019-04-20T00:08:44.400Z,4.80
2019-04-20T00:11:27.550Z,4.70
2019-04-20T00:14:04.072Z,4.53
2019-04-20T00:16:31.614Z,4.77
2019-04-20T00:19:07.707Z,5.47
2019-04-20T00:21:56.161Z,4.80
2019-04-20T00:24:43.878Z,5.10
2019-04-20T00:27:47.170Z,4.90
2019-04-20T00:30:06.681Z,4.87
2019-04-20T00:32:46.880Z,5.20
2019-04-20T00:35:08.858Z,4.87
2019-04-20T00:37:44.571Z,4.77
2019-04-20T00:40:19.614Z,5.03
2019-04-20T00:42:56.460Z,4.70
2019-04-20T00:45:33.022Z,5.03
2019-04-20T00:48:19.036Z,4.57
2019-04-20T00:50:57.225Z,4.20
2019-04-20T00:53:31.376Z,4.77
2019-04-20T00:55:59.095Z,4.70
2019-04-20T00:58:46.287Z,4.90
2019-04-20T01:01:32.201Z,5.00
2019-04-20T01:04:07.102Z,5.27
2019-04-20T01:06:54.168Z,4.70
2019-04-20T01:09:22.353Z,4.30
2019-04-20T01:11:58.598Z,4.87
2019-04-20T01:14:40.623Z,5.30
2019-04-20T01:17:12.070Z,5.03
2019-04-20T01:19:43.204Z,4.43
2019-04-20T01:22:21.880Z,4.33
2019-04-20T01:24:53.693Z,4.50
2019-04-20T01:27:42.416Z,4.23
2019-04-20T01:30:16.309Z,3.93
2019-04-20T01:33:00.491Z,4.83
2019-04-20T01:35:39.383Z,4.40
2019-04-20T01:38:16.684Z,5.30
2019-04-20T01:40:33.766Z,4.70
2019-04-20T01:43:08.024Z,4.67
2019-04-20T01:45:43.924Z,5.33
2019-04-20T01:48:25.808Z,5.27
2019-04-20T01:51:02.747Z,4.60
2019-04-20T01:53:58.515Z,5.27
2019-04-20T01:56:21.775Z,4.50
2019-04-20T01:59:28.902Z,3.90
2019-04-20T02:02:13.153Z,4.10
2019-04-20T02:05:04.474Z,4.60
2019-04-20T02:07:38.971Z,4.73
2019-04-20T02:10:13.405Z,5.00
2019-04-20T02:12:50.356Z,4.20
2019-04-20T02:15:31.120Z,4.60
2019-04-20T02:18:07.669Z,4.60
2019-04-20T02:20:54.290Z,5.00
2019-04-20T02:23:25.174Z,4.20
2019-04-20T02:25:48.029Z,4.50
2019-04-20T02:28:44.253Z,4.27
2019-04-20T02:31:52.119Z,4.10
2019-04-20T02:34:18.323Z,3.93
2019-04-20T02:42:08.785Z,4.60
2019-04-20T02:47:25.774Z,4.17
2019-04-20T02:55:09.585Z,4.43
2019-04-20T02:57:47.298Z,4.50
2019-04-20T03:00:12.233Z,4.90
2019-04-20T03:02:41.436Z,4.73
2019-04-20T03:05:15.223Z,5.17
2019-04-20T03:07:57.409Z,4.73
2019-04-20T03:10:44.864Z,4.37
2019-04-20T03:13:12.734Z,4.40
2019-04-20T03:15:41.797Z,4.90
2019-04-20T03:18:22.318Z,4.90
2019-04-20T03:20:59.164Z,4.70
2019-04-20T03:23:44.502Z,4.70
2019-04-20T03:26:19.004Z,4.80
2019-04-20T03:29:05.330Z,4.40
2019-04-20T03:32:27.931Z,4.70
2019-04-20T03:35:03.935Z,4.50
2019-04-20T03:37:20.016Z,4.73
2019-04-20T03:39:46.656Z,5.00
2019-04-20T03:42:07.181Z,4.23
2019-04-20T03:44:50.083Z,4.20
2019-04-20T03:47:26.676Z,5.20
2019-04-20T03:50:10.692Z,4.17
2019-04-20T03:53:14.194Z,4.73
2019-04-20T03:56:02.595Z,4.20
2019-04-20T03:58:55.428Z,4.70
2019-04-20T04:02:17.381Z,4.43
2019-04-20T04:04:38.688Z,4.53
2019-04-20T04:06:58.050Z,4.43
2019-04-20T04:09:39.801Z,4.60
2019-04-20T04:13:05.401Z,4.37
2019-04-20T04:15:44.247Z,4.47
2019-04-20T04:18:26.012Z,4.90
2019-04-20T04:21:01.404Z,4.20
2019-04-20T04:23:47.371Z,4.00
2019-04-20T04:26:25.931Z,4.77
2019-04-20T04:29:02.746Z,3.73
2019-04-20T04:31:39.131Z,4.37
2019-04-20T04:34:10.765Z,4.20
2019-04-20T04:36:49.763Z,4.67
2019-04-20T04:42:10.333Z,4.37
2019-04-20T04:44:33.521Z,4.40
2019-04-20T04:46:58.556Z,3.63
2019-04-20T04:49:36.661Z,4.47
2019-04-20T04:52:12.393Z,4.07
2019-04-20T04:54:52.966Z,3.70
2019-04-20T04:57:20.052Z,4.00
2019-04-20T04:59:55.199Z,3.70
2019-04-20T05:02:37.351Z,3.97
2019-04-20T05:05:47.317Z,3.90
2019-04-20T05:08:14.434Z,4.40
2019-04-20T05:10:39.220Z,3.83
2019-04-20T05:13:14.150Z,4.23
2019-04-20T05:16:00.153Z,3.93
2019-04-20T05:18:53.023Z,4.10
2019-04-20T05:21:26.022Z,4.07
2019-04-20T05:24:09.877Z,3.97
2019-04-20T05:27:01.914Z,3.47
2019-04-20T05:29:24.118Z,3.93
2019-04-20T05:32:03.577Z,4.43
2019-04-20T05:35:02.350Z,3.60
2019-04-20T05:37:34.392Z,3.87
2019-04-20T05:40:05.987Z,3.80
2019-04-20T05:42:49.922Z,4.10
2019-04-20T05:45:22.289Z,4.00
2019-04-20T05:47:58.610Z,3.90
2019-04-20T05:50:37.957Z,3.27
2019-04-20T05:53:14.455Z,3.80
2019-04-20T05:55:50.297Z,3.73
2019-04-20T05:58:30.976Z,3.03
2019-04-20T06:01:10.884Z,3.20
2019-04-20T06:03:41.346Z,3.60
2019-04-20T06:06:20.647Z,3.13
2019-04-20T06:08:53.953Z,3.50
2019-04-20T06:11:25.772Z,3.03
2019-04-20T06:14:08.005Z,3.03
2019-04-20T06:17:28.504Z,3.63
2019-04-20T06:20:02.295Z,3.57
2019-04-20T06:22:50.888Z,3.20
2019-04-20T06:25:54.245Z,3.30
2019-04-20T06:28:22.282Z,2.80
2019-04-20T06:30:53.965Z,2.80
2019-04-20T06:34:30.541Z,3.30
2019-04-20T06:36:54.266Z,3.00
2019-04-20T06:39:44.972Z,2.90
2019-04-20T06:42:23.473Z,3.30
2019-04-20T06:44:45.774Z,3.40
2019-04-20T06:47:30.697Z,3.30
2019-04-20T06:50:08.629Z,3.10
2019-04-20T06:52:53.801Z,3.13
2019-04-20T06:55:38.161Z,2.87
2019-04-20T06:58:24.885Z,3.67
2019-04-20T07:00:55.349Z,3.20
2019-04-20T07:03:37.560Z,3.70
2019-04-20T07:06:08.511Z,3.10
2019-04-20T07:08:56.914Z,3.47
2019-04-20T07:11:14.720Z,3.10
2019-04-20T07:13:35.903Z,2.90
2019-04-20T07:16:43.283Z,3.70
2019-04-20T07:19:21.292Z,3.40
2019-04-20T07:22:26.340Z,3.40
2019-04-20T07:24:52.039Z,3.73
2019-04-20T07:27:22.940Z,3.30
2019-04-20T07:30:06.279Z,3.23
2019-04-20T07:32:44.354Z,3.50
2019-04-20T07:35:14.085Z,3.07
2019-04-20T07:40:24.643Z,2.93
2019-04-20T07:43:19.723Z,3.30
2019-04-20T07:45:40.101Z,3.30
2019-04-20T07:48:15.435Z,3.87
2019-04-20T07:50:44.962Z,3.57
2019-04-20T07:53:28.174Z,3.00
2019-04-20T07:56:05.064Z,3.60
2019-04-20T07:58:34.780Z,3.87
2019-04-20T08:01:41.295Z,3.73
2019-04-20T08:04:13.615Z,3.23
2019-04-20T08:06:42.182Z,3.50
2019-04-20T08:09:22.197Z,3.20
2019-04-20T08:12:22.155Z,3.13
2019-04-20T08:14:55.406Z,2.87
2019-04-20T08:17:31.441Z,3.67
2019-04-20T08:19:59.512Z,3.10
2019-04-20T08:22:42.213Z,3.00
2019-04-20T08:25:08.371Z,2.20
2019-04-20T08:27:48.786Z,2.90
2019-04-20T08:30:56.138Z,3.00
2019-04-20T08:33:30.919Z,3.10
2019-04-20T08:36:13.537Z,2.70
2019-04-20T08:41:12.871Z,2.80
2019-04-20T08:43:58.939Z,2.20
2019-04-20T08:46:26.463Z,2.53
2019-04-20T08:49:13.134Z,2.37
2019-04-20T08:51:53.749Z,2.77
2019-04-20T08:54:16.547Z,2.20
2019-04-20T08:56:41.549Z,2.70
2019-04-20T08:59:09.654Z,2.40
2019-04-20T09:01:46.765Z,2.50
2019-04-20T09:04:32.891Z,2.70
2019-04-20T09:07:05.571Z,2.63
2019-04-20T09:09:52.543Z,2.67
2019-04-20T09:12:27.765Z,2.20
2019-04-20T09:14:48.799Z,3.17
2019-04-20T09:17:36.638Z,3.20
2019-04-20T09:20:12.623Z,2.40
2019-04-20T09:23:07.118Z,2.90
2019-04-20T09:28:40.510Z,2.67
2019-04-20T09:31:33.154Z,2.33
2019-04-20T09:34:25.975Z,2.50
2019-04-20T09:37:36.937Z,2.60
2019-04-20T09:40:02.391Z,2.70
2019-04-20T09:42:34.459Z,3.00
2019-04-20T09:45:20.249Z,2.90
2019-04-20T09:47:51.514Z,2.73
2019-04-20T09:50:40.897Z,3.20
2019-04-20T09:53:14.323Z,3.00
2019-04-20T09:55:53.392Z,3.60
2019-04-20T09:58:21.258Z,2.67
2019-04-20T10:01:02.192Z,3.17
2019-04-20T10:03:22.626Z,3.10
2019-04-20T10:05:57.595Z,3.20
2019-04-20T10:08:34.885Z,3.17
2019-04-20T10:11:07.701Z,2.53
2019-04-20T10:13:42.360Z,3.60
2019-04-20T10:16:16.064Z,3.73
2019-04-20T10:18:53.254Z,2.87
2019-04-20T10:21:27.653Z,3.07
2019-04-20T10:24:02.787Z,3.40
2019-04-20T10:26:38.762Z,3.20
2019-04-20T10:29:13.292Z,4.10
2019-04-20T10:31:54.332Z,3.60
2019-04-20T10:34:26.428Z,3.37
2019-04-20T10:37:19.719Z,3.40
2019-04-20T10:39:54.397Z,3.90
2019-04-20T10:42:30.132Z,3.30
2019-04-20T10:45:05.927Z,4.77
2019-04-20T10:47:41.069Z,4.10
2019-04-20T10:50:16.854Z,3.50
2019-04-20T10:52:51.871Z,3.70
2019-04-20T10:55:27.152Z,3.83
2019-04-20T10:58:03.733Z,3.83
2019-04-20T11:00:44.230Z,3.87
2019-04-20T11:03:17.926Z,3.90
2019-04-20T11:05:53.010Z,4.97
2019-04-20T11:08:26.878Z,4.63
2019-04-20T11:11:11.801Z,4.73
2019-04-20T11:13:37.527Z,4.90
2019-04-20T11:16:12.612Z,5.33
2019-04-20T11:18:47.292Z,4.10
2019-04-20T11:21:24.492Z,5.60
2019-04-20T11:23:58.407Z,5.03
2019-04-20T11:26:36.300Z,5.77
2019-04-20T11:29:10.543Z,5.67
2019-04-20T11:31:49.503Z,5.23
2019-04-20T11:34:23.477Z,6.00
2019-04-20T11:36:57.384Z,5.47
2019-04-20T11:39:32.954Z,5.60
2019-04-20T11:42:08.282Z,5.13
2019-04-20T11:44:42.536Z,4.73
2019-04-20T11:47:16.800Z,4.50
2019-04-20T11:49:53.404Z,5.47
2019-04-20T11:52:33.205Z,4.80
2019-04-20T11:55:04.416Z,5.37
2019-04-20T11:57:39.716Z,4.80
2019-04-20T12:00:17.285Z,5.10
2019-04-20T12:03:31.493Z,5.60
2019-04-20T12:06:04.672Z,4.60
2019-04-20T12:08:38.858Z,5.10
2019-04-20T12:11:23.060Z,5.23
2019-04-20T12:13:46.836Z,5.30
2019-04-20T12:16:21.526Z,5.00
2019-04-20T12:18:56.629Z,5.20
2019-04-20T12:21:30.748Z,4.53
2019-04-20T12:24:06.730Z,4.60
2019-04-20T12:26:42.739Z,3.53
2019-04-20T12:29:17.524Z,4.13
2019-04-20T12:31:56.288Z,3.83
2019-04-20T12:34:26.699Z,4.53
2019-04-20T12:37:05.014Z,4.10
2019-04-20T12:39:39.461Z,3.70
2019-04-20T12:42:14.719Z,3.50
2019-04-20T12:44:49.984Z,4.07
2019-04-20T12:47:25.742Z,3.17
2019-04-20T12:50:01.422Z,4.40
2019-04-20T12:52:36.529Z,3.43
2019-04-20T12:55:10.743Z,3.80
2019-04-20T12:57:46.889Z,3.30
2019-04-20T13:00:23.694Z,4.17
2019-04-20T13:02:57.480Z,3.10
2019-04-20T13:05:31.888Z,3.37
2019-04-20T13:08:07.155Z,3.40
2019-04-20T13:10:44.465Z,2.80
2019-04-20T13:13:34.434Z,3.20
2019-04-20T13:16:20.603Z,3.37
2019-04-20T13:18:59.362Z,2.83
2019-04-20T13:21:34.842Z,3.47
2019-04-20T13:24:09.271Z,2.93
2019-04-20T13:26:45.362Z,3.40
2019-04-20T13:29:20.685Z,3.40
2019-04-20T13:31:56.280Z,3.03
2019-04-20T13:34:29.977Z,2.73
2019-04-20T13:37:04.271Z,2.80
2019-04-20T13:39:38.681Z,2.50
2019-04-20T13:42:21.196Z,2.10
2019-04-20T13:44:50.853Z,2.53
2019-04-20T13:47:28.181Z,2.77
2019-04-20T13:50:03.324Z,2.63
2019-04-20T13:52:37.285Z,2.20
2019-04-20T13:55:12.833Z,2.63
2019-04-20T13:58:07.330Z,2.07
2019-04-20T14:00:58.690Z,2.27
2019-04-20T14:03:34.840Z,2.50
2019-04-20T14:06:10.990Z,2.63
2019-04-20T14:08:45.876Z,2.33
2019-04-20T14:11:20.825Z,2.20
2019-04-20T14:13:59.830Z,2.40
2019-04-20T14:16:31.559Z,1.60
2019-04-20T14:19:05.472Z,2.10
2019-04-20T14:21:39.175Z,2.40
2019-04-20T14:24:15.062Z,2.50
2019-04-20T14:26:50.785Z,1.60
2019-04-20T14:29:27.572Z,1.83
2019-04-20T14:32:03.495Z,2.03
2019-04-20T14:34:36.600Z,1.80
2019-04-20T14:37:11.301Z,1.90
2019-04-20T14:39:46.173Z,2.10
2019-04-20T14:42:33.108Z,1.43
2019-04-20T14:44:55.580Z,1.70
2019-04-20T14:47:31.798Z,2.93
2019-04-20T14:50:07.631Z,1.67
2019-04-20T14:52:41.780Z,1.50
2019-04-20T14:55:17.379Z,1.50
2019-04-20T14:57:53.097Z,1.87
2019-04-20T15:01:00.582Z,1.67
2019-04-20T15:03:38.717Z,1.80
2019-04-20T15:06:13.771Z,1.80
2019-04-20T15:08:48.606Z,1.47
2019-04-20T15:11:22.950Z,1.50
2019-04-20T15:13:58.499Z,1.50
2019-04-20T15:16:34.790Z,1.73
2019-04-20T15:19:27.540Z,1.90
2019-04-20T15:22:05.333Z,1.60
2019-04-20T15:24:41.788Z,1.57
2019-04-20T15:27:18.260Z,1.77
2019-04-20T15:29:54.041Z,1.60
2019-04-20T15:32:29.076Z,2.20
2019-04-20T15:35:03.120Z,1.43
2019-04-20T15:37:39.520Z,1.10
2019-04-20T15:40:15.144Z,1.50
2019-04-20T15:42:58.924Z,1.50
2019-04-20T15:45:25.296Z,1.40
2019-04-20T15:48:01.722Z,2.00
2019-04-20T15:50:36.032Z,1.60
2019-04-20T15:53:13.516Z,1.60
2019-04-20T15:55:49.207Z,1.73
2019-04-20T15:58:26.067Z,2.30
2019-04-20T16:01:00.549Z,1.77
2019-04-20T16:03:39.465Z,1.53
2019-04-20T16:06:13.623Z,1.80
2019-04-20T16:08:50.290Z,1.40
2019-04-20T16:11:23.545Z,1.80
2019-04-20T16:13:58.219Z,1.77
2019-04-20T16:16:34.145Z,1.70
2019-04-20T16:19:25.917Z,1.63
2019-04-20T16:21:47.891Z,1.80
2019-04-20T16:24:26.106Z,1.87
2019-04-20T16:27:25.797Z,1.53
2019-04-20T16:29:59.943Z,1.90
2019-04-20T16:32:34.376Z,1.60
2019-04-20T16:35:10.795Z,1.80
2019-04-20T16:37:46.409Z,1.80
2019-04-20T16:40:23.295Z,2.10
2019-04-20T16:42:58.429Z,1.80
2019-04-20T16:45:34.987Z,1.90
2019-04-20T16:48:10.375Z,2.10
2019-04-20T16:50:45.004Z,2.30
2019-04-20T16:53:19.117Z,1.80
2019-04-20T16:55:52.903Z,2.30
2019-04-20T16:58:28.162Z,2.20
2019-04-20T17:01:03.460Z,2.13
2019-04-20T17:03:49.454Z,2.43
2019-04-20T17:06:13.820Z,2.60
2019-04-20T17:08:47.915Z,1.97
2019-04-20T17:11:25.789Z,1.93
2019-04-20T17:14:03.534Z,1.87
2019-04-20T17:16:37.655Z,1.90
2019-04-20T17:19:11.528Z,1.90
2019-04-20T17:21:46.497Z,1.93
2019-04-20T17:24:21.628Z,2.20
2019-04-20T17:27:08.886Z,2.20
2019-04-20T17:30:00.986Z,2.33
2019-04-20T17:32:35.466Z,2.43
2019-04-20T17:35:21.868Z,2.47
2019-04-20T17:37:49.825Z,2.40
2019-04-20T17:40:39.768Z,2.73
2019-04-20T17:43:06.546Z,2.00
2019-04-20T17:45:43.196Z,1.60
2019-04-20T17:48:25.582Z,2.13
2019-04-20T17:51:04.747Z,2.33
2019-04-20T17:53:50.955Z,2.07
2019-04-20T17:56:22.120Z,2.53
2019-04-20T17:58:56.420Z,2.10
2019-04-20T18:02:16.840Z,2.20
2019-04-20T18:05:09.834Z,2.07
2019-04-20T18:07:41.278Z,1.97
2019-04-20T18:10:11.449Z,2.37
2019-04-20T18:12:42.061Z,3.00
2019-04-20T18:15:29.476Z,1.90
2019-04-20T18:18:31.208Z,1.90
2019-04-20T18:21:10.944Z,2.53
2019-04-20T18:23:48.164Z,2.40
2019-04-20T18:26:38.102Z,2.50
2019-04-20T18:29:14.974Z,4.73
2019-04-20T18:31:51.465Z,3.50
2019-04-20T18:34:51.298Z,7.50
2019-04-20T18:37:22.062Z,10.20
2019-04-20T18:40:05.102Z,5.90
2019-04-20T18:42:38.844Z,4.43
2019-04-20T18:45:27.928Z,3.17
2019-04-20T18:48:02.726Z,2.83
2019-04-20T18:50:27.645Z,2.63
2019-04-20T18:52:57.971Z,3.40
2019-04-20T18:55:41.679Z,3.20
2019-04-20T18:58:07.447Z,3.47
2019-04-20T19:00:45.761Z,3.47
2019-04-20T19:03:25.421Z,3.80
2019-04-20T19:05:52.012Z,3.63
2019-04-20T19:08:33.776Z,3.30
2019-04-20T19:11:09.131Z,3.53
2019-04-20T19:13:59.194Z,3.20
2019-04-20T19:16:52.427Z,4.17
2019-04-20T19:19:42.403Z,6.50
2019-04-20T19:22:14.248Z,4.27
2019-04-20T19:24:48.084Z,3.00
2019-04-20T19:27:30.241Z,3.40
2019-04-20T19:30:11.687Z,3.97
2019-04-20T19:32:54.489Z,5.90
2019-04-20T19:35:25.940Z,6.30
2019-04-20T19:37:58.411Z,4.07
2019-04-20T19:40:33.855Z,3.90
2019-04-20T19:43:08.481Z,3.67
2019-04-20T19:46:07.405Z,5.37
2019-04-20T19:48:30.811Z,4.53
2019-04-20T19:51:14.475Z,6.13
2019-04-20T19:53:48.835Z,4.50
2019-04-20T19:56:10.671Z,4.47
2019-04-20T19:58:53.403Z,4.30
2019-04-20T20:01:13.606Z,5.03
2019-04-20T20:03:56.359Z,4.10
2019-04-20T20:06:32.540Z,4.10
2019-04-20T20:09:06.731Z,4.77
2019-04-20T20:11:42.341Z,4.33
2019-04-20T20:14:18.060Z,5.20
2019-04-20T20:17:08.448Z,4.90
2019-04-20T20:19:38.122Z,4.90
2019-04-20T20:22:13.224Z,4.23
2019-04-20T20:24:40.971Z,4.40
2019-04-20T20:27:25.392Z,4.70
2019-04-20T20:30:00.499Z,5.00
2019-04-20T20:32:44.884Z,5.63
2019-04-20T20:35:12.637Z,5.17
2019-04-20T20:37:48.033Z,4.80
2019-04-20T20:40:24.866Z,4.37
2019-04-20T20:43:06.495Z,4.90
2019-04-20T20:45:36.181Z,4.73
2019-04-20T20:48:22.699Z,4.40
2019-04-20T20:50:58.974Z,4.63
2019-04-20T20:53:32.614Z,5.50
2019-04-20T20:56:06.631Z,5.10
2019-04-20T20:58:43.057Z,6.33
2019-04-20T21:01:14.381Z,6.10
2019-04-20T21:03:46.062Z,5.13
2019-04-20T21:06:20.140Z,4.90
2019-04-20T21:08:58.309Z,5.20
2019-04-20T21:11:34.792Z,4.33
2019-04-20T21:14:08.945Z,5.33
2019-04-20T21:16:52.230Z,4.30
2019-04-20T21:19:35.337Z,5.37
2019-04-20T21:22:02.976Z,5.43
2019-04-20T21:24:37.856Z,5.60
2019-04-20T21:27:16.526Z,5.60
2019-04-20T21:29:51.459Z,5.40
2019-04-20T21:32:23.717Z,5.43
2019-04-20T21:35:03.506Z,4.90
2019-04-20T21:37:35.355Z,5.30
2019-04-20T21:40:21.585Z,4.70
2019-04-20T21:42:54.775Z,5.40
2019-04-20T21:45:28.633Z,5.73
2019-04-20T21:48:02.243Z,5.30
2019-04-20T21:50:57.526Z,6.90
2019-04-20T21:53:17.875Z,6.50
2019-04-20T21:55:48.005Z,6.60
2019-04-20T21:58:29.823Z,6.80
2019-04-20T22:01:15.066Z,7.13
2019-04-20T22:03:36.323Z,8.10
2019-04-20T22:06:12.310Z,8.10
2019-04-20T22:08:52.895Z,8.13
2019-04-20T22:11:22.069Z,8.40
2019-04-20T22:14:03.151Z,8.10
2019-04-20T22:16:38.909Z,8.33
2019-04-20T22:19:25.967Z,8.87
2019-04-20T22:21:59.871Z,9.80
2019-04-20T22:24:40.259Z,8.53
2019-04-20T22:27:06.492Z,8.80
2019-04-20T22:29:36.375Z,8.60
2019-04-20T22:32:16.196Z,8.50
2019-04-20T22:34:56.836Z,9.50
2019-04-20T22:37:28.655Z,9.03
2019-04-20T22:40:03.080Z,8.00
2019-04-20T22:43:06.243Z,7.77
2019-04-20T22:45:46.624Z,8.43
2019-04-20T22:48:18.003Z,9.63
2019-04-20T22:51:14.271Z,8.70
2019-04-20T22:53:44.013Z,9.90
2019-04-20T22:56:26.832Z,10.10
2019-04-20T22:58:54.182Z,9.00
2019-04-20T23:01:31.442Z,8.60
2019-04-20T23:03:54.799Z,9.70
2019-04-20T23:06:36.072Z,9.77
2019-04-20T23:09:14.664Z,9.13
2019-04-20T23:11:47.476Z,10.13
2019-04-20T23:14:22.380Z,11.13
2019-04-20T23:16:57.575Z,10.53
2019-04-20T23:19:42.825Z,9.97
2019-04-20T23:22:10.290Z,11.10
2019-04-20T23:24:44.884Z,21.90
2019-04-20T23:27:27.277Z,20.13
2019-04-20T23:29:58.374Z,14.30
2019-04-20T23:32:33.823Z,13.17
2019-04-20T23:35:16.014Z,18.17
2019-04-20T23:37:46.487Z,22.37
2019-04-20T23:40:21.675Z,19.90
2019-04-20T23:43:07.752Z,20.00
2019-04-20T23:46:15.159Z,13.57
2019-04-20T23:48:54.241Z,12.30
2019-04-20T23:51:49.571Z,11.90
2019-04-20T23:54:12.398Z,12.93
2019-04-20T23:56:47.886Z,12.40
2019-04-20T23:59:29.021Z,12.10
